createdAt,value
2023-02-19T00:01:43.643Z,3.28
2023-02-19T00:06:50.380Z,3.67
2023-02-19T00:09:20.100Z,3.60
2023-02-19T00:11:48.373Z,3.00
2023-02-19T00:14:19.372Z,2.63
2023-02-19T00:16:48.121Z,3.78
2023-02-19T00:19:18.412Z,4.00
2023-02-19T00:21:46.797Z,2.20
2023-02-19T00:24:15.962Z,2.70
2023-02-19T00:26:45.563Z,3.88
2023-02-19T00:29:16.480Z,2.42
2023-02-19T00:31:46.165Z,3.25
2023-02-19T00:34:15.015Z,3.53
2023-02-19T00:36:45.147Z,2.85
2023-02-19T00:39:16.368Z,3.22
2023-02-19T00:41:45.404Z,3.47
2023-02-19T00:44:14.538Z,3.38
2023-02-19T00:46:45.643Z,2.17
2023-02-19T00:49:20.330Z,4.45
2023-02-19T00:51:49.653Z,3.33
2023-02-19T00:54:17.974Z,2.80
2023-02-19T00:56:46.670Z,3.65
2023-02-19T00:59:15.570Z,2.28
2023-02-19T01:01:45.561Z,3.22
2023-02-19T01:04:13.965Z,2.17
2023-02-19T01:06:42.319Z,3.47
2023-02-19T01:09:10.525Z,3.30
2023-02-19T01:11:38.850Z,3.00
2023-02-19T01:14:07.164Z,3.13
2023-02-19T01:16:35.524Z,2.58
2023-02-19T01:19:03.848Z,2.20
2023-02-19T01:21:32.767Z,2.75
2023-02-19T01:24:00.934Z,3.92
2023-02-19T01:26:31.693Z,3.50
2023-02-19T01:29:01.252Z,3.28
2023-02-19T01:31:30.794Z,3.92
2023-02-19T01:34:01.840Z,3.10
2023-02-19T01:36:31.198Z,2.88
2023-02-19T01:39:01.641Z,2.70
2023-02-19T01:41:29.812Z,3.50
2023-02-19T01:46:44.553Z,2.80
2023-02-19T01:51:58.738Z,2.85
2023-02-19T01:54:30.496Z,2.38
2023-02-19T01:56:58.605Z,2.80
2023-02-19T01:59:26.850Z,2.72
2023-02-19T02:01:54.894Z,2.97
2023-02-19T02:04:23.053Z,3.05
2023-02-19T02:06:54.568Z,3.63
2023-02-19T02:09:45.364Z,2.20
2023-02-19T02:12:13.581Z,2.25
2023-02-19T02:14:44.973Z,2.90
2023-02-19T02:22:38.978Z,1.88
2023-02-19T02:28:27.122Z,2.60
2023-02-19T02:31:00.446Z,2.75
2023-02-19T02:36:17.650Z,3.33
2023-02-19T02:38:47.418Z,2.72
2023-02-19T02:41:17.286Z,2.58
2023-02-19T02:43:45.409Z,3.47
2023-02-19T02:46:14.899Z,2.78
2023-02-19T02:49:04.808Z,3.20
2023-02-19T02:51:39.900Z,2.60
2023-02-19T02:54:35.570Z,2.88
2023-02-19T02:57:09.988Z,2.78
2023-02-19T02:59:45.179Z,3.05
2023-02-19T03:02:19.910Z,2.92
2023-02-19T03:05:29.973Z,3.05
2023-02-19T03:11:30.648Z,1.70
2023-02-19T03:14:27.176Z,2.28
2023-02-19T03:17:20.140Z,3.03
2023-02-19T03:19:51.547Z,2.38
2023-02-19T03:22:24.165Z,2.88
2023-02-19T03:25:16.143Z,2.83
2023-02-19T03:27:46.367Z,2.38
2023-02-19T03:30:20.405Z,2.45
2023-02-19T03:35:32.580Z,2.33
2023-02-19T03:43:45.581Z,2.25
2023-02-19T03:46:23.608Z,2.72
2023-02-19T03:48:55.288Z,2.17
2023-02-19T03:51:44.799Z,2.15
2023-02-19T03:54:35.722Z,2.67
2023-02-19T03:57:12.721Z,2.60
2023-02-19T04:05:15.696Z,2.38
2023-02-19T04:07:47.335Z,2.40
2023-02-19T04:10:18.613Z,1.88
2023-02-19T04:12:54.912Z,2.90
2023-02-19T04:15:26.375Z,2.17
2023-02-19T04:17:59.653Z,2.33
2023-02-19T04:20:30.707Z,1.85
2023-02-19T04:22:59.527Z,2.58
2023-02-19T04:25:28.366Z,2.42
2023-02-19T04:27:57.002Z,1.70
2023-02-19T04:30:25.342Z,1.67
2023-02-19T04:32:53.246Z,2.95
2023-02-19T04:35:21.402Z,1.90
2023-02-19T04:37:49.455Z,1.77
2023-02-19T04:40:18.044Z,2.33
2023-02-19T04:42:46.516Z,2.58
2023-02-19T04:45:14.643Z,2.65
2023-02-19T04:47:42.436Z,3.40
2023-02-19T04:50:10.343Z,2.88
2023-02-19T04:52:38.136Z,1.88
2023-02-19T04:55:07.123Z,0.93
2023-02-19T04:57:35.966Z,2.53
2023-02-19T05:00:05.277Z,2.55
2023-02-19T05:02:33.371Z,2.55
2023-02-19T05:05:01.332Z,2.55
2023-02-19T05:07:31.440Z,2.85
2023-02-19T05:10:00.240Z,2.97
2023-02-19T05:12:28.480Z,2.33
2023-02-19T05:14:56.582Z,2.47
2023-02-19T05:17:24.551Z,2.13
2023-02-19T05:19:52.542Z,2.05
2023-02-19T05:22:20.612Z,2.15
2023-02-19T05:24:49.121Z,2.85
2023-02-19T05:27:17.279Z,2.90
2023-02-19T05:29:45.133Z,2.38
2023-02-19T05:32:13.312Z,2.35
2023-02-19T05:34:42.401Z,3.08
2023-02-19T05:37:12.360Z,2.33
2023-02-19T05:39:40.362Z,2.85
2023-02-19T05:42:08.641Z,2.13
2023-02-19T05:44:36.924Z,3.08
2023-02-19T05:47:05.054Z,2.70
2023-02-19T05:49:33.328Z,3.00
2023-02-19T05:52:01.672Z,2.60
2023-02-19T05:54:30.757Z,2.25
2023-02-19T05:56:58.504Z,3.10
2023-02-19T05:59:27.254Z,2.95
2023-02-19T06:01:55.769Z,2.58
2023-02-19T06:04:24.128Z,2.25
2023-02-19T06:06:52.249Z,2.83
2023-02-19T06:09:20.669Z,3.38
2023-02-19T06:11:48.535Z,2.67
2023-02-19T06:14:16.371Z,2.65
2023-02-19T06:16:44.332Z,2.03
2023-02-19T06:19:12.623Z,2.42
2023-02-19T06:21:40.958Z,2.85
2023-02-19T06:24:10.091Z,3.05
2023-02-19T06:26:38.266Z,2.05
2023-02-19T06:29:06.185Z,3.13
2023-02-19T06:31:34.833Z,2.70
2023-02-19T06:34:05.626Z,3.28
2023-02-19T06:36:34.297Z,2.33
2023-02-19T06:39:04.053Z,3.20
2023-02-19T06:41:32.203Z,3.22
2023-02-19T06:44:00.669Z,4.38
2023-02-19T06:46:28.722Z,2.55
2023-02-19T06:48:57.525Z,2.40
2023-02-19T06:51:27.599Z,2.22
2023-02-19T06:53:56.697Z,2.53
2023-02-19T06:59:17.721Z,3.00
2023-02-19T07:01:46.092Z,3.75
2023-02-19T07:04:14.529Z,2.08
2023-02-19T07:06:43.244Z,3.28
2023-02-19T07:09:11.617Z,3.13
2023-02-19T07:11:41.033Z,2.58
2023-02-19T07:14:11.503Z,2.67
2023-02-19T07:16:39.780Z,2.13
2023-02-19T07:19:08.105Z,3.47
2023-02-19T07:21:38.293Z,3.33
2023-02-19T07:24:06.965Z,2.53
2023-02-19T07:26:35.145Z,4.90
2023-02-19T07:29:03.084Z,2.33
2023-02-19T07:31:31.608Z,2.42
2023-02-19T07:34:00.288Z,1.90
2023-02-19T07:36:28.611Z,3.28
2023-02-19T07:38:58.343Z,3.53
2023-02-19T07:41:27.220Z,2.53
2023-02-19T07:43:58.462Z,3.45
2023-02-19T07:46:26.422Z,2.88
2023-02-19T07:48:54.444Z,3.28
2023-02-19T07:51:22.748Z,2.53
2023-02-19T07:53:51.289Z,3.28
2023-02-19T07:56:20.413Z,4.18
2023-02-19T07:58:48.672Z,3.80
2023-02-19T08:01:20.374Z,3.83
2023-02-19T08:03:50.449Z,3.50
2023-02-19T08:06:18.853Z,3.88
2023-02-19T08:08:47.214Z,3.53
2023-02-19T08:11:34.923Z,3.88
2023-02-19T08:14:02.741Z,2.83
2023-02-19T08:16:42.703Z,6.35
2023-02-19T08:19:11.562Z,1.60
2023-02-19T08:21:39.973Z,3.33
2023-02-19T08:24:08.442Z,3.30
2023-02-19T08:26:37.163Z,3.65
2023-02-19T08:29:06.658Z,3.05
2023-02-19T08:31:35.818Z,3.95
2023-02-19T08:34:04.257Z,2.08
2023-02-19T08:36:32.279Z,3.55
2023-02-19T08:39:00.334Z,3.83
2023-02-19T08:41:28.623Z,3.38
2023-02-19T08:43:56.927Z,3.38
2023-02-19T08:46:25.046Z,3.47
2023-02-19T08:48:52.911Z,3.75
2023-02-19T08:51:20.978Z,2.60
2023-02-19T08:53:48.918Z,3.42
2023-02-19T08:56:18.353Z,3.78
2023-02-19T08:58:46.858Z,4.15
2023-02-19T09:01:16.989Z,3.42
2023-02-19T09:03:44.941Z,3.05
2023-02-19T09:06:19.130Z,3.20
2023-02-19T09:08:47.410Z,3.53
2023-02-19T09:11:15.734Z,3.03
2023-02-19T09:13:44.253Z,3.38
2023-02-19T09:16:13.861Z,2.83
2023-02-19T09:18:41.693Z,3.58
2023-02-19T09:21:10.290Z,4.43
2023-02-19T09:23:38.681Z,3.53
2023-02-19T09:26:09.694Z,3.55
2023-02-19T09:28:40.526Z,3.78
2023-02-19T09:31:11.709Z,3.88
2023-02-19T09:33:44.946Z,3.90
2023-02-19T09:36:14.151Z,2.95
2023-02-19T09:38:42.850Z,3.67
2023-02-19T09:41:20.120Z,3.13
2023-02-19T09:43:49.071Z,3.90
2023-02-19T09:49:02.381Z,3.13
2023-02-19T09:51:30.966Z,3.53
2023-02-19T09:53:59.185Z,3.83
2023-02-19T09:56:27.700Z,4.90
2023-02-19T09:58:58.160Z,4.70
2023-02-19T10:01:31.805Z,4.25
2023-02-19T10:03:59.599Z,4.43
2023-02-19T10:06:30.657Z,4.03
2023-02-19T10:09:15.852Z,4.28
2023-02-19T10:11:43.394Z,3.28
2023-02-19T10:14:18.250Z,4.60
2023-02-19T10:16:46.897Z,4.82
2023-02-19T10:19:15.262Z,4.40
2023-02-19T10:21:43.662Z,4.03
2023-02-19T10:24:21.461Z,3.70
2023-02-19T10:26:51.207Z,3.60
2023-02-19T10:29:20.978Z,4.38
2023-02-19T10:31:49.687Z,3.60
2023-02-19T10:34:23.604Z,4.10
2023-02-19T10:36:52.170Z,3.97
2023-02-19T10:42:01.042Z,4.50
2023-02-19T10:44:30.513Z,3.85
2023-02-19T10:46:59.765Z,3.70
2023-02-19T10:49:32.674Z,4.25
2023-02-19T10:52:11.361Z,4.82
2023-02-19T10:54:41.438Z,4.93
2023-02-19T10:59:59.607Z,2.88
2023-02-19T11:02:29.327Z,3.50
2023-02-19T11:07:54.367Z,3.95
2023-02-19T11:13:03.039Z,4.30
2023-02-19T11:15:35.988Z,4.30
2023-02-19T11:23:49.160Z,4.57
2023-02-19T11:26:20.084Z,4.43
2023-02-19T11:28:57.336Z,3.45
2023-02-19T11:36:39.493Z,5.22
2023-02-19T11:42:29.409Z,4.75
2023-02-19T11:45:21.914Z,4.30
2023-02-19T11:50:42.939Z,3.65
2023-02-19T11:58:47.176Z,4.18
2023-02-19T12:09:20.176Z,4.13
2023-02-19T12:12:04.955Z,4.00
2023-02-19T12:20:03.954Z,3.97
2023-02-19T12:22:34.064Z,6.45
2023-02-19T12:25:24.519Z,3.80
2023-02-19T12:36:32.958Z,4.30
2023-02-19T12:42:03.765Z,3.60
2023-02-19T12:44:48.381Z,3.53
2023-02-19T12:47:23.785Z,4.47
2023-02-19T12:50:10.468Z,4.25
2023-02-19T12:52:42.202Z,4.22
2023-02-19T12:55:25.428Z,4.40
2023-02-19T12:57:55.103Z,3.38
2023-02-19T13:05:50.939Z,4.43
2023-02-19T13:08:26.949Z,4.20
2023-02-19T13:10:59.017Z,4.07
2023-02-19T13:14:06.586Z,4.82
2023-02-19T13:16:38.925Z,3.97
2023-02-19T13:19:07.212Z,3.55
2023-02-19T13:21:57.228Z,4.20
2023-02-19T13:24:35.578Z,3.90
2023-02-19T13:38:17.649Z,4.13
2023-02-19T13:41:01.898Z,4.40
2023-02-19T13:43:35.256Z,3.78
2023-02-19T13:46:07.565Z,4.82
2023-02-19T14:04:50.778Z,4.00
2023-02-19T14:09:55.895Z,5.38
2023-02-19T14:12:32.842Z,4.85
2023-02-19T14:15:40.334Z,6.30
2023-02-19T14:18:47.612Z,4.15
2023-02-19T14:21:26.438Z,5.22
2023-02-19T14:23:56.803Z,5.00
2023-02-19T14:26:26.392Z,5.95
2023-02-19T14:28:54.656Z,5.63
2023-02-19T14:31:30.515Z,5.03
2023-02-19T14:34:03.831Z,4.97
2023-02-19T14:36:45.567Z,4.72
2023-02-19T14:39:17.569Z,5.50
2023-02-19T14:41:49.324Z,4.97
2023-02-19T14:44:27.858Z,5.60
2023-02-19T14:47:04.825Z,5.93
2023-02-19T14:57:48.839Z,4.50
2023-02-19T15:00:38.572Z,4.15
2023-02-19T15:03:06.573Z,4.90
2023-02-19T15:05:37.347Z,4.80
2023-02-19T15:08:12.409Z,4.15
2023-02-19T15:10:42.962Z,6.13
2023-02-19T15:13:17.655Z,5.88
2023-02-19T15:15:46.601Z,4.13
2023-02-19T15:18:20.548Z,4.25
2023-02-19T15:20:48.523Z,4.15
2023-02-19T15:23:22.931Z,4.65
2023-02-19T15:25:51.192Z,5.53
2023-02-19T15:28:21.214Z,4.70
2023-02-19T15:30:48.922Z,3.95
2023-02-19T15:33:18.642Z,3.83
2023-02-19T15:36:06.876Z,5.80
2023-02-19T15:38:34.990Z,5.05
2023-02-19T15:41:02.849Z,4.28
2023-02-19T15:46:12.092Z,5.22
2023-02-19T15:48:44.461Z,5.45
2023-02-19T15:53:46.893Z,3.90
2023-02-19T15:56:34.893Z,4.43
2023-02-19T16:01:40.589Z,5.13
2023-02-19T16:04:18.219Z,5.82
2023-02-19T16:07:02.853Z,6.45
2023-02-19T16:12:24.854Z,4.07
2023-02-19T16:14:52.441Z,5.50
2023-02-19T16:17:28.424Z,4.90
2023-02-19T16:19:58.811Z,5.43
2023-02-19T16:22:31.181Z,4.45
2023-02-19T16:25:03.417Z,5.43
2023-02-19T16:27:35.701Z,4.78
2023-02-19T16:32:47.403Z,5.53
2023-02-19T16:35:37.583Z,5.00
2023-02-19T16:38:14.539Z,5.85
2023-02-19T16:43:31.715Z,9.10
2023-02-19T16:46:00.992Z,7.22
2023-02-19T16:48:29.312Z,5.90
2023-02-19T16:50:57.474Z,5.53
2023-02-19T16:53:25.822Z,5.80
2023-02-19T16:55:53.786Z,5.40
2023-02-19T16:58:23.327Z,5.03
2023-02-19T17:00:51.656Z,3.47
2023-02-19T17:03:22.511Z,4.97
2023-02-19T17:05:51.232Z,4.75
2023-02-19T17:11:08.578Z,6.43
2023-02-19T17:13:36.418Z,4.55
2023-02-19T17:16:04.400Z,7.25
2023-02-19T17:18:32.591Z,6.03
2023-02-19T17:23:38.090Z,5.13
2023-02-19T17:26:06.136Z,4.65
2023-02-19T17:28:34.285Z,7.30
2023-02-19T17:31:02.576Z,4.65
2023-02-19T17:33:30.308Z,5.25
2023-02-19T17:35:58.714Z,5.30
2023-02-19T17:38:26.941Z,5.50
2023-02-19T17:40:54.778Z,5.88
2023-02-19T17:43:24.734Z,5.47
2023-02-19T17:45:53.345Z,4.72
2023-02-19T17:48:21.188Z,5.97
2023-02-19T17:50:50.679Z,4.43
2023-02-19T17:53:19.265Z,5.20
2023-02-19T17:55:47.586Z,4.60
2023-02-19T17:58:16.105Z,4.53
2023-02-19T18:00:44.054Z,5.70
2023-02-19T18:03:11.909Z,5.65
2023-02-19T18:05:39.730Z,5.35
2023-02-19T18:08:07.744Z,4.22
2023-02-19T18:10:36.655Z,4.68
2023-02-19T18:13:04.682Z,5.50
2023-02-19T18:15:32.429Z,5.65
2023-02-19T18:18:00.130Z,5.38
2023-02-19T18:20:29.549Z,5.45
2023-02-19T18:22:58.122Z,5.15
2023-02-19T18:25:26.149Z,4.75
2023-02-19T18:27:54.518Z,5.97
2023-02-19T18:30:24.299Z,4.82
2023-02-19T18:32:52.459Z,4.75
2023-02-19T18:35:21.522Z,6.15
2023-02-19T18:37:53.115Z,4.28
2023-02-19T18:40:23.058Z,4.85
2023-02-19T18:42:51.187Z,6.10
2023-02-19T18:45:19.234Z,6.32
2023-02-19T18:47:49.007Z,6.47
2023-02-19T18:50:19.293Z,4.88
2023-02-19T18:52:47.237Z,6.60
2023-02-19T18:55:15.384Z,5.78
2023-02-19T18:57:45.048Z,5.95
2023-02-19T19:00:19.653Z,4.93
2023-02-19T19:02:50.725Z,5.40
2023-02-19T19:05:23.510Z,5.35
2023-02-19T19:07:53.403Z,4.60
2023-02-19T19:10:21.734Z,4.80
2023-02-19T19:12:50.107Z,5.93
2023-02-19T19:15:19.502Z,4.90
2023-02-19T19:17:48.503Z,5.97
2023-02-19T19:20:20.922Z,6.03
2023-02-19T19:25:19.313Z,6.13
2023-02-19T19:27:47.553Z,4.53
2023-02-19T19:30:15.746Z,6.93
2023-02-19T19:32:44.298Z,5.00
2023-02-19T19:35:12.773Z,5.93
2023-02-19T19:37:40.522Z,6.15
2023-02-19T19:40:09.649Z,5.10
2023-02-19T19:42:37.524Z,5.25
2023-02-19T19:45:06.181Z,4.95
2023-02-19T19:47:34.235Z,5.68
2023-02-19T19:50:01.852Z,6.00
2023-02-19T19:52:31.301Z,6.07
2023-02-19T19:54:59.042Z,6.18
2023-02-19T19:57:26.569Z,5.68
2023-02-19T19:59:54.440Z,5.97
2023-02-19T20:02:24.498Z,5.88
2023-02-19T20:04:52.105Z,5.95
2023-02-19T20:07:19.903Z,6.07
2023-02-19T20:09:49.636Z,6.93
2023-02-19T20:12:17.893Z,6.45
2023-02-19T20:14:46.830Z,6.82
2023-02-19T20:17:15.622Z,6.60
2023-02-19T20:19:43.689Z,6.22
2023-02-19T20:22:12.529Z,4.55
2023-02-19T20:24:40.538Z,5.53
2023-02-19T20:27:09.384Z,6.97
2023-02-19T20:29:37.098Z,6.60
2023-02-19T20:32:05.197Z,6.30
2023-02-19T20:34:33.081Z,7.13
2023-02-19T20:37:01.176Z,5.88
2023-02-19T20:39:29.878Z,4.93
2023-02-19T20:41:58.870Z,5.53
2023-02-19T20:44:28.253Z,4.90
2023-02-19T20:46:57.346Z,5.95
2023-02-19T20:49:27.977Z,5.57
2023-02-19T20:52:01.159Z,5.75
2023-02-19T20:54:31.878Z,6.38
2023-02-19T20:57:02.590Z,6.05
2023-02-19T20:59:35.422Z,4.50
2023-02-19T21:02:04.458Z,6.55
2023-02-19T21:04:32.658Z,6.13
2023-02-19T21:07:00.811Z,6.65
2023-02-19T21:09:28.846Z,6.07
2023-02-19T21:11:56.536Z,6.93
2023-02-19T21:14:24.325Z,5.88
2023-02-19T21:16:52.361Z,5.63
2023-02-19T21:19:21.097Z,6.57
2023-02-19T21:21:48.979Z,7.00
2023-02-19T21:24:16.773Z,5.85
2023-02-19T21:26:45.532Z,6.28
2023-02-19T21:29:20.094Z,5.97
2023-02-19T21:31:50.365Z,5.93
2023-02-19T21:34:20.501Z,6.95
2023-02-19T21:36:52.208Z,7.75
2023-02-19T21:39:21.675Z,6.25
2023-02-19T21:41:50.178Z,5.70
2023-02-19T21:44:18.859Z,5.32
2023-02-19T21:46:46.484Z,5.07
2023-02-19T21:49:14.016Z,4.97
2023-02-19T21:51:43.617Z,6.25
2023-02-19T21:54:31.264Z,5.90
2023-02-19T21:57:02.325Z,6.28
2023-02-19T21:59:29.844Z,6.43
2023-02-19T22:01:57.573Z,6.35
2023-02-19T22:04:25.169Z,5.40
2023-02-19T22:06:56.480Z,6.82
2023-02-19T22:09:24.445Z,5.97
2023-02-19T22:11:52.903Z,6.38
2023-02-19T22:14:20.520Z,5.72
2023-02-19T22:16:48.524Z,6.15
2023-02-19T22:19:16.481Z,5.50
2023-02-19T22:21:45.484Z,6.35
2023-02-19T22:24:22.290Z,6.50
2023-02-19T22:26:51.368Z,6.47
2023-02-19T22:29:19.289Z,6.03
2023-02-19T22:31:46.962Z,6.00
2023-02-19T22:34:15.815Z,6.03
2023-02-19T22:36:44.043Z,6.15
2023-02-19T22:39:20.253Z,5.80
2023-02-19T22:41:48.528Z,5.85
2023-02-19T22:44:16.211Z,5.32
2023-02-19T22:46:59.474Z,5.38
2023-02-19T22:49:27.214Z,6.82
2023-02-19T22:51:58.516Z,6.15
2023-02-19T22:54:27.402Z,6.55
2023-02-19T22:56:55.526Z,5.97
2023-02-19T22:59:23.902Z,4.90
2023-02-19T23:01:51.774Z,6.97
2023-02-19T23:04:21.176Z,7.28
2023-02-19T23:06:48.802Z,6.68
2023-02-19T23:09:21.560Z,6.57
2023-02-19T23:11:49.682Z,6.40
2023-02-19T23:14:19.220Z,6.78
2023-02-19T23:16:46.829Z,5.85
2023-02-19T23:19:15.939Z,6.75
2023-02-19T23:21:45.384Z,5.45
2023-02-19T23:24:14.108Z,5.93
2023-02-19T23:26:45.004Z,5.90
2023-02-19T23:29:16.456Z,6.63
2023-02-19T23:31:43.959Z,6.18
2023-02-19T23:34:11.622Z,6.63
2023-02-19T23:36:41.945Z,6.35
2023-02-19T23:39:12.347Z,5.85
2023-02-19T23:41:40.172Z,5.43
2023-02-19T23:44:07.605Z,6.10
2023-02-19T23:46:34.929Z,6.43
2023-02-19T23:49:02.558Z,5.75
2023-02-19T23:51:30.312Z,5.78
2023-02-19T23:53:57.592Z,6.53
2023-02-19T23:56:26.320Z,5.45
2023-02-19T23:58:53.875Z,5.80
